Archival Weather

Bob Hope

Burbank, California (KBUR)

Report from: Monday, January 29, 2024 7:53 PM PST
Current time: Friday, June 14, 2024 6:39 AM PDT

Current weather – Weather history – Daily summaries
Weather forecast

Temperature18.3°C (64.9°F)
Dew point4.4°C (39.9°F)
Winds 6 kts (3.1 m/s, 6.9 mph) West-Northwest (290°)
Visibility10 mi. (16.1 km)
Clouds Sky clear
Altimeter30.08 in.Hg (1019 mB)
Relative humidity40 %
Density altitude369 ft. (112 m)
Sea-level pressure101.8 kPa (1018 mB, 30.05 in.Hg)
Remarks Automated weather observing station with precipitation discriminator
Flight conditions Visual Meteorological Conditions
Raw dataKBUR 300353Z 29006KT 10SM CLR 18/04 A3008 RMK AO2 SLP175 T01830044
An error has occurred. This application may no longer respond until reloaded. Reload 🗙